JZA460 CYYD-CYVR
Flight info
| Callsign | JZA460 |
|---|---|
| Flight time | 1h 31m |
| Altitude | 25000 |
| Route | YYD DCT TRENA WHSLR8 |
| Aircraft | DH8D/M-SDE2E3FGRY/H |
Departure
| Time | 2026-05-08 00:40 |
|---|---|
| Airport | Smithers Airport (CYYD) |
Arrival
| Time | 2026-05-08 02:11 |
|---|---|
| Airport | Vancouver International Airport (CYVR) |
| Time | Latitude | Longitude | Altitude | Speed | Heading |
|---|---|---|---|---|---|
| 2026-05-07 23:57 | 54.82375 | -127.18581 | 1748 ft | 0 kts | 306° |
| 2026-05-08 00:32 | 54.82377 | -127.18584 | 1748 ft | 0 kts | 325° |
| 2026-05-08 00:32 | 54.82379 | -127.18584 | 1748 ft | 0 kts | 348° |
| 2026-05-08 00:32 | 54.82384 | -127.18575 | 1748 ft | 1 kts | 83° |
| 2026-05-08 00:32 | 54.82381 | -127.18542 | 1748 ft | 3 kts | 119° |
| 2026-05-08 00:33 | 54.82357 | -127.18516 | 1748 ft | 4 kts | 156° |
| 2026-05-08 00:33 | 54.82332 | -127.18504 | 1748 ft | 0 kts | 167° |
| 2026-05-08 00:33 | 54.82304 | -127.18495 | 1748 ft | 7 kts | 170° |
| 2026-05-08 00:33 | 54.82243 | -127.18478 | 1748 ft | 9 kts | 179° |
| 2026-05-08 00:34 | 54.82187 | -127.18520 | 1748 ft | 8 kts | 210° |
| 2026-05-08 00:34 | 54.82132 | -127.18527 | 1748 ft | 7 kts | 169° |
| 2026-05-08 00:34 | 54.82083 | -127.18512 | 1749 ft | 6 kts | 171° |
| 2026-05-08 00:34 | 54.82030 | -127.18497 | 1749 ft | 8 kts | 170° |
| 2026-05-08 00:35 | 54.81961 | -127.18478 | 1749 ft | 11 kts | 171° |
| 2026-05-08 00:35 | 54.81878 | -127.18454 | 1749 ft | 11 kts | 171° |
| 2026-05-08 00:35 | 54.81806 | -127.18428 | 1749 ft | 9 kts | 153° |
| 2026-05-08 00:35 | 54.81791 | -127.18331 | 1750 ft | 7 kts | 81° |
| 2026-05-08 00:36 | 54.81799 | -127.18255 | 1749 ft | 5 kts | 79° |
| 2026-05-08 00:36 | 54.81806 | -127.18188 | 1749 ft | 5 kts | 80° |
| 2026-05-08 00:36 | 54.81803 | -127.18104 | 1749 ft | 10 kts | 125° |
| 2026-05-08 00:36 | 54.81727 | -127.18056 | 1750 ft | 11 kts | 170° |
| 2026-05-08 00:37 | 54.81654 | -127.18034 | 1750 ft | 10 kts | 171° |
| 2026-05-08 00:37 | 54.81588 | -127.18039 | 1751 ft | 8 kts | 198° |
| 2026-05-08 00:37 | 54.81536 | -127.18043 | 1751 ft | 6 kts | 122° |
| 2026-05-08 00:38 | 54.81580 | -127.18012 | 1751 ft | 0 kts | 350° |
| 2026-05-08 00:39 | 54.81736 | -127.18055 | 1750 ft | 64 kts | 350° |
| 2026-05-08 00:40 | 54.82459 | -127.18265 | 1750 ft | 138 kts | 353° |
| 2026-05-08 00:40 | 54.83480 | -127.18535 | 2044 ft | 155 kts | 355° |
| 2026-05-08 00:40 | 54.84576 | -127.18813 | 2517 ft | 166 kts | 351° |
| 2026-05-08 00:40 | 54.85704 | -127.19124 | 3169 ft | 167 kts | 350° |
| 2026-05-08 00:41 | 54.86909 | -127.19443 | 3606 ft | 184 kts | 351° |
| 2026-05-08 00:41 | 54.88206 | -127.19778 | 4001 ft | 194 kts | 351° |
| 2026-05-08 00:41 | 54.89535 | -127.20124 | 4544 ft | 196 kts | 351° |
| 2026-05-08 00:41 | 54.90880 | -127.20468 | 5103 ft | 197 kts | 351° |
| 2026-05-08 00:42 | 54.92214 | -127.20991 | 5609 ft | 199 kts | 332° |
| 2026-05-08 00:42 | 54.93149 | -127.22700 | 6089 ft | 199 kts | 302° |
| 2026-05-08 00:42 | 54.93899 | -127.24697 | 6663 ft | 198 kts | 304° |
| 2026-05-08 00:42 | 54.94707 | -127.26618 | 7174 ft | 200 kts | 307° |
| 2026-05-08 00:43 | 54.95605 | -127.28432 | 7717 ft | 201 kts | 320° |
| 2026-05-08 00:43 | 54.96876 | -127.29481 | 8182 ft | 205 kts | 341° |
| 2026-05-08 00:43 | 54.98250 | -127.30203 | 8705 ft | 206 kts | 341° |
| 2026-05-08 00:43 | 54.99622 | -127.30898 | 9211 ft | 207 kts | 342° |
| 2026-05-08 00:44 | 55.01001 | -127.31574 | 9690 ft | 209 kts | 342° |
| 2026-05-08 00:44 | 55.02406 | -127.32249 | 10189 ft | 209 kts | 342° |
| 2026-05-08 00:44 | 55.03812 | -127.32915 | 10647 ft | 211 kts | 342° |
| 2026-05-08 00:44 | 55.05246 | -127.33538 | 11112 ft | 214 kts | 348° |
| 2026-05-08 00:45 | 55.06703 | -127.33074 | 11461 ft | 225 kts | 30° |
| 2026-05-08 00:45 | 55.07669 | -127.30884 | 11772 ft | 235 kts | 69° |
| 2026-05-08 00:45 | 55.08103 | -127.28123 | 12151 ft | 239 kts | 74° |
| 2026-05-08 00:45 | 55.08504 | -127.25307 | 12562 ft | 240 kts | 74° |
| 2026-05-08 00:46 | 55.08907 | -127.22493 | 12913 ft | 244 kts | 74° |
| 2026-05-08 00:46 | 55.09318 | -127.19630 | 13308 ft | 244 kts | 73° |
| 2026-05-08 00:46 | 55.09549 | -127.16696 | 13582 ft | 251 kts | 97° |
| 2026-05-08 00:46 | 55.08821 | -127.14008 | 13837 ft | 247 kts | 139° |
| 2026-05-08 00:47 | 55.07432 | -127.12318 | 14127 ft | 245 kts | 154° |
| 2026-05-08 00:47 | 55.05961 | -127.10835 | 14486 ft | 245 kts | 154° |
| 2026-05-08 00:47 | 55.04461 | -127.09333 | 14813 ft | 247 kts | 154° |
| 2026-05-08 00:47 | 55.02971 | -127.07846 | 15140 ft | 248 kts | 154° |
| 2026-05-08 00:48 | 55.01478 | -127.06357 | 15459 ft | 250 kts | 154° |
| 2026-05-08 00:48 | 54.99962 | -127.04847 | 15757 ft | 251 kts | 154° |
| 2026-05-08 00:48 | 54.98437 | -127.03328 | 16060 ft | 253 kts | 154° |
| 2026-05-08 00:48 | 54.96907 | -127.01807 | 16359 ft | 253 kts | 154° |
| 2026-05-08 00:49 | 54.95387 | -127.00295 | 16649 ft | 255 kts | 154° |
| 2026-05-08 00:49 | 54.93830 | -126.98750 | 16929 ft | 257 kts | 154° |
| 2026-05-08 00:49 | 54.92286 | -126.97218 | 17223 ft | 257 kts | 154° |
| 2026-05-08 00:49 | 54.90741 | -126.95686 | 17485 ft | 259 kts | 154° |
| 2026-05-08 00:50 | 54.89173 | -126.94134 | 17721 ft | 261 kts | 155° |
| 2026-05-08 00:50 | 54.87592 | -126.92570 | 17970 ft | 263 kts | 154° |
| 2026-05-08 00:50 | 54.86008 | -126.91003 | 18228 ft | 264 kts | 154° |
| 2026-05-08 00:50 | 54.84402 | -126.89417 | 18520 ft | 264 kts | 155° |
| 2026-05-08 00:51 | 54.82812 | -126.87849 | 18751 ft | 265 kts | 155° |
| 2026-05-08 00:51 | 54.81215 | -126.86272 | 19039 ft | 265 kts | 155° |
| 2026-05-08 00:51 | 54.79598 | -126.84681 | 19269 ft | 266 kts | 155° |
| 2026-05-08 00:51 | 54.77938 | -126.83347 | 19501 ft | 263 kts | 166° |
| 2026-05-08 00:52 | 54.76210 | -126.82361 | 19743 ft | 262 kts | 168° |
| 2026-05-08 00:52 | 54.74480 | -126.81401 | 19978 ft | 263 kts | 168° |
| 2026-05-08 00:52 | 54.72741 | -126.80434 | 20210 ft | 264 kts | 168° |
| 2026-05-08 00:52 | 54.70981 | -126.79455 | 20419 ft | 265 kts | 168° |
| 2026-05-08 00:53 | 54.69252 | -126.78487 | 20730 ft | 261 kts | 168° |
| 2026-05-08 00:53 | 54.67521 | -126.77519 | 20940 ft | 261 kts | 168° |
| 2026-05-08 00:53 | 54.65808 | -126.76561 | 21172 ft | 260 kts | 168° |
| 2026-05-08 00:53 | 54.64073 | -126.75591 | 21334 ft | 262 kts | 168° |
| 2026-05-08 00:54 | 54.62351 | -126.74628 | 21517 ft | 261 kts | 168° |
| 2026-05-08 00:54 | 54.60615 | -126.73658 | 21679 ft | 262 kts | 168° |
| 2026-05-08 00:54 | 54.58892 | -126.72696 | 21845 ft | 263 kts | 168° |
| 2026-05-08 00:54 | 54.57159 | -126.71729 | 21986 ft | 264 kts | 168° |
| 2026-05-08 00:55 | 54.55400 | -126.70745 | 22196 ft | 261 kts | 168° |
| 2026-05-08 00:55 | 54.53696 | -126.69792 | 22399 ft | 260 kts | 168° |
| 2026-05-08 00:55 | 54.51967 | -126.68829 | 22550 ft | 260 kts | 168° |
| 2026-05-08 00:55 | 54.50264 | -126.67882 | 22683 ft | 260 kts | 169° |
| 2026-05-08 00:56 | 54.48520 | -126.66912 | 22817 ft | 260 kts | 169° |
| 2026-05-08 00:56 | 54.46810 | -126.65962 | 22955 ft | 261 kts | 168° |
| 2026-05-08 00:56 | 54.45078 | -126.64999 | 23079 ft | 261 kts | 168° |
| 2026-05-08 00:56 | 54.43371 | -126.63943 | 23185 ft | 264 kts | 165° |
| 2026-05-08 00:57 | 54.41653 | -126.62786 | 23329 ft | 263 kts | 165° |
| 2026-05-08 00:57 | 54.39965 | -126.61650 | 23445 ft | 263 kts | 165° |
| 2026-05-08 00:57 | 54.38248 | -126.60502 | 23523 ft | 265 kts | 165° |
| 2026-05-08 00:57 | 54.36540 | -126.59363 | 23648 ft | 265 kts | 165° |
| 2026-05-08 00:58 | 54.34813 | -126.58215 | 23761 ft | 265 kts | 165° |
| 2026-05-08 00:58 | 54.33099 | -126.57080 | 23816 ft | 267 kts | 165° |
| 2026-05-08 00:58 | 54.31373 | -126.55936 | 24021 ft | 261 kts | 166° |
| 2026-05-08 00:58 | 54.29681 | -126.54817 | 24149 ft | 260 kts | 166° |
| 2026-05-08 00:59 | 54.28003 | -126.53713 | 24249 ft | 260 kts | 166° |
| 2026-05-08 00:59 | 54.26327 | -126.52611 | 24314 ft | 261 kts | 166° |
| 2026-05-08 00:59 | 54.24639 | -126.51505 | 24389 ft | 261 kts | 166° |
| 2026-05-08 00:59 | 54.22919 | -126.50376 | 24456 ft | 262 kts | 166° |
| 2026-05-08 01:00 | 54.21238 | -126.49274 | 24526 ft | 262 kts | 166° |
| 2026-05-08 01:00 | 54.19531 | -126.48157 | 24590 ft | 263 kts | 166° |
| 2026-05-08 01:00 | 54.17826 | -126.47041 | 24698 ft | 261 kts | 166° |
| 2026-05-08 01:00 | 54.16136 | -126.45936 | 24768 ft | 261 kts | 166° |
| 2026-05-08 01:01 | 54.14436 | -126.44826 | 24823 ft | 262 kts | 166° |
| 2026-05-08 01:01 | 54.12749 | -126.43725 | 24883 ft | 262 kts | 166° |
| 2026-05-08 01:01 | 54.11039 | -126.42610 | 24941 ft | 262 kts | 166° |
| 2026-05-08 01:01 | 54.09332 | -126.41499 | 24975 ft | 264 kts | 166° |
| 2026-05-08 01:02 | 54.07606 | -126.40377 | 24981 ft | 266 kts | 166° |
| 2026-05-08 01:02 | 54.05884 | -126.39259 | 24989 ft | 269 kts | 166° |
| 2026-05-08 01:02 | 54.04126 | -126.38120 | 24990 ft | 272 kts | 166° |
| 2026-05-08 01:02 | 54.02349 | -126.36968 | 24988 ft | 276 kts | 166° |
| 2026-05-08 01:03 | 54.00544 | -126.35798 | 24983 ft | 279 kts | 166° |
| 2026-05-08 01:03 | 53.98728 | -126.34620 | 24982 ft | 282 kts | 166° |
| 2026-05-08 01:03 | 53.96868 | -126.33415 | 24983 ft | 284 kts | 166° |
| 2026-05-08 01:03 | 53.95037 | -126.32230 | 24986 ft | 286 kts | 166° |
| 2026-05-08 01:04 | 53.93148 | -126.31010 | 24985 ft | 289 kts | 166° |
| 2026-05-08 01:04 | 53.91281 | -126.29803 | 24987 ft | 292 kts | 166° |
| 2026-05-08 01:04 | 53.89365 | -126.28568 | 24988 ft | 294 kts | 166° |
| 2026-05-08 01:04 | 53.87447 | -126.27331 | 24987 ft | 296 kts | 166° |
| 2026-05-08 01:05 | 53.85519 | -126.26090 | 24988 ft | 299 kts | 166° |
| 2026-05-08 01:05 | 53.83560 | -126.24831 | 24986 ft | 301 kts | 166° |
| 2026-05-08 01:05 | 53.81613 | -126.23579 | 24986 ft | 304 kts | 166° |
| 2026-05-08 01:05 | 53.79611 | -126.22294 | 24982 ft | 306 kts | 166° |
| 2026-05-08 01:06 | 53.77612 | -126.21011 | 24986 ft | 308 kts | 166° |
| 2026-05-08 01:06 | 53.75596 | -126.19719 | 24985 ft | 310 kts | 165° |
| 2026-05-08 01:06 | 53.73573 | -126.18425 | 24987 ft | 312 kts | 166° |
| 2026-05-08 01:06 | 53.71547 | -126.17130 | 24988 ft | 314 kts | 165° |
| 2026-05-08 01:07 | 53.69485 | -126.15813 | 24989 ft | 316 kts | 165° |
| 2026-05-08 01:07 | 53.67428 | -126.14501 | 24988 ft | 318 kts | 165° |
| 2026-05-08 01:07 | 53.65365 | -126.13187 | 24989 ft | 320 kts | 165° |
| 2026-05-08 01:07 | 53.63263 | -126.11848 | 24990 ft | 322 kts | 165° |
| 2026-05-08 01:08 | 53.61189 | -126.10529 | 24990 ft | 323 kts | 165° |
| 2026-05-08 01:08 | 53.59073 | -126.09186 | 24989 ft | 325 kts | 165° |
| 2026-05-08 01:08 | 53.56962 | -126.07847 | 24994 ft | 326 kts | 165° |
| 2026-05-08 01:08 | 53.54827 | -126.06493 | 24992 ft | 327 kts | 165° |
| 2026-05-08 01:09 | 53.52698 | -126.05145 | 24988 ft | 328 kts | 165° |
| 2026-05-08 01:09 | 53.50555 | -126.03790 | 24992 ft | 329 kts | 165° |
| 2026-05-08 01:09 | 53.48403 | -126.02431 | 24994 ft | 330 kts | 165° |
| 2026-05-08 01:09 | 53.46259 | -126.01079 | 24994 ft | 331 kts | 165° |
| 2026-05-08 01:10 | 53.44099 | -125.99718 | 24996 ft | 331 kts | 165° |
| 2026-05-08 01:10 | 53.41955 | -125.98367 | 24998 ft | 332 kts | 165° |
| 2026-05-08 01:10 | 53.39805 | -125.97015 | 24999 ft | 333 kts | 165° |
| 2026-05-08 01:10 | 53.37613 | -125.95639 | 24996 ft | 333 kts | 165° |
| 2026-05-08 01:11 | 53.35435 | -125.94273 | 24993 ft | 334 kts | 165° |
| 2026-05-08 01:11 | 53.33253 | -125.92905 | 24993 ft | 334 kts | 165° |
| 2026-05-08 01:11 | 53.31088 | -125.91550 | 24994 ft | 334 kts | 165° |
| 2026-05-08 01:11 | 53.28904 | -125.90184 | 24991 ft | 335 kts | 165° |
| 2026-05-08 01:12 | 53.26729 | -125.88826 | 24991 ft | 335 kts | 165° |
| 2026-05-08 01:12 | 53.24546 | -125.87463 | 24994 ft | 335 kts | 165° |
| 2026-05-08 01:12 | 53.22351 | -125.86095 | 24993 ft | 335 kts | 165° |
| 2026-05-08 01:12 | 53.20176 | -125.84741 | 24994 ft | 335 kts | 165° |
| 2026-05-08 01:13 | 53.17986 | -125.83379 | 24997 ft | 336 kts | 165° |
| 2026-05-08 01:13 | 53.15803 | -125.82024 | 24992 ft | 336 kts | 165° |
| 2026-05-08 01:13 | 53.13600 | -125.80657 | 24996 ft | 336 kts | 165° |
| 2026-05-08 01:13 | 53.11421 | -125.79307 | 24999 ft | 336 kts | 165° |
| 2026-05-08 01:14 | 53.09218 | -125.77943 | 25001 ft | 336 kts | 165° |
| 2026-05-08 01:14 | 53.07040 | -125.76597 | 24997 ft | 337 kts | 165° |
| 2026-05-08 01:14 | 53.04858 | -125.75249 | 24997 ft | 337 kts | 165° |
| 2026-05-08 01:14 | 53.02665 | -125.73895 | 24999 ft | 337 kts | 165° |
| 2026-05-08 01:15 | 53.00458 | -125.72535 | 25002 ft | 337 kts | 165° |
| 2026-05-08 01:15 | 52.98254 | -125.71178 | 24998 ft | 337 kts | 165° |
| 2026-05-08 01:15 | 52.96054 | -125.69825 | 25009 ft | 337 kts | 165° |
| 2026-05-08 01:15 | 52.93868 | -125.68482 | 25008 ft | 336 kts | 165° |
| 2026-05-08 01:16 | 52.91677 | -125.67136 | 25018 ft | 336 kts | 165° |
| 2026-05-08 01:16 | 52.89505 | -125.65807 | 25026 ft | 336 kts | 165° |
| 2026-05-08 01:16 | 52.87301 | -125.64455 | 25030 ft | 335 kts | 165° |
| 2026-05-08 01:16 | 52.85126 | -125.63127 | 25017 ft | 335 kts | 165° |
| 2026-05-08 01:17 | 52.82908 | -125.61770 | 25016 ft | 336 kts | 165° |
| 2026-05-08 01:17 | 52.80730 | -125.60443 | 25021 ft | 335 kts | 165° |
| 2026-05-08 01:17 | 52.78538 | -125.59106 | 25016 ft | 335 kts | 165° |
| 2026-05-08 01:17 | 52.76340 | -125.57767 | 25022 ft | 335 kts | 165° |
| 2026-05-08 01:18 | 52.74139 | -125.56429 | 25016 ft | 336 kts | 165° |
| 2026-05-08 01:18 | 52.71954 | -125.55100 | 25020 ft | 336 kts | 165° |
| 2026-05-08 01:18 | 52.69771 | -125.53776 | 25026 ft | 336 kts | 165° |
| 2026-05-08 01:18 | 52.67574 | -125.52443 | 25023 ft | 336 kts | 165° |
| 2026-05-08 01:19 | 52.65379 | -125.51113 | 25021 ft | 336 kts | 165° |
| 2026-05-08 01:19 | 52.63192 | -125.49789 | 25016 ft | 336 kts | 165° |
| 2026-05-08 01:19 | 52.61005 | -125.48467 | 25022 ft | 336 kts | 165° |
| 2026-05-08 01:19 | 52.58803 | -125.47138 | 25024 ft | 336 kts | 164° |
| 2026-05-08 01:20 | 52.56622 | -125.45824 | 25020 ft | 336 kts | 165° |
| 2026-05-08 01:20 | 52.54413 | -125.44492 | 25021 ft | 336 kts | 164° |
| 2026-05-08 01:20 | 52.52239 | -125.43182 | 25040 ft | 335 kts | 165° |
| 2026-05-08 01:20 | 52.50047 | -125.41865 | 25039 ft | 335 kts | 164° |
| 2026-05-08 01:21 | 52.47852 | -125.40545 | 25033 ft | 336 kts | 165° |
| 2026-05-08 01:21 | 52.45650 | -125.39224 | 25031 ft | 336 kts | 165° |
| 2026-05-08 01:21 | 52.43438 | -125.37900 | 25034 ft | 336 kts | 165° |
| 2026-05-08 01:21 | 52.41271 | -125.36602 | 25039 ft | 336 kts | 164° |
| 2026-05-08 01:22 | 52.39064 | -125.35281 | 25042 ft | 336 kts | 164° |
| 2026-05-08 01:22 | 52.36862 | -125.33965 | 25048 ft | 335 kts | 165° |
| 2026-05-08 01:22 | 52.34689 | -125.32667 | 25046 ft | 335 kts | 166° |
| 2026-05-08 01:22 | 52.32502 | -125.31365 | 25036 ft | 335 kts | 165° |
| 2026-05-08 01:23 | 52.30311 | -125.30063 | 25033 ft | 335 kts | 165° |
| 2026-05-08 01:23 | 52.28116 | -125.28756 | 25028 ft | 334 kts | 165° |
| 2026-05-08 01:23 | 52.25921 | -125.27448 | 25025 ft | 334 kts | 165° |
| 2026-05-08 01:23 | 52.23761 | -125.26166 | 25040 ft | 333 kts | 166° |
| 2026-05-08 01:24 | 52.21561 | -125.24864 | 25045 ft | 332 kts | 165° |
| 2026-05-08 01:24 | 52.19398 | -125.23582 | 25046 ft | 332 kts | 165° |
| 2026-05-08 01:24 | 52.17228 | -125.22297 | 25044 ft | 332 kts | 166° |
| 2026-05-08 01:24 | 52.15058 | -125.21013 | 25047 ft | 332 kts | 165° |
| 2026-05-08 01:25 | 52.12880 | -125.19727 | 25048 ft | 332 kts | 165° |
| 2026-05-08 01:25 | 52.10717 | -125.18451 | 25049 ft | 332 kts | 166° |
| 2026-05-08 01:25 | 52.08555 | -125.17178 | 25045 ft | 331 kts | 165° |
| 2026-05-08 01:25 | 52.06392 | -125.15905 | 25046 ft | 331 kts | 165° |
| 2026-05-08 01:26 | 52.04216 | -125.14623 | 25045 ft | 331 kts | 165° |
| 2026-05-08 01:26 | 52.02035 | -125.13343 | 25044 ft | 331 kts | 165° |
| 2026-05-08 01:26 | 51.99867 | -125.12071 | 25046 ft | 331 kts | 165° |
| 2026-05-08 01:26 | 51.97704 | -125.10802 | 25054 ft | 331 kts | 165° |
| 2026-05-08 01:27 | 51.95544 | -125.09537 | 25051 ft | 331 kts | 165° |
| 2026-05-08 01:27 | 51.93353 | -125.08254 | 25054 ft | 331 kts | 165° |
| 2026-05-08 01:27 | 51.91209 | -125.07001 | 25036 ft | 332 kts | 165° |
| 2026-05-08 01:27 | 51.89028 | -125.05727 | 25038 ft | 331 kts | 166° |
| 2026-05-08 01:28 | 51.86880 | -125.04473 | 25043 ft | 329 kts | 165° |
| 2026-05-08 01:28 | 51.84718 | -125.03212 | 25043 ft | 329 kts | 166° |
| 2026-05-08 01:28 | 51.82583 | -125.01970 | 25048 ft | 329 kts | 166° |
| 2026-05-08 01:28 | 51.80412 | -125.00709 | 25056 ft | 329 kts | 165° |
| 2026-05-08 01:29 | 51.78259 | -124.99457 | 25062 ft | 329 kts | 165° |
| 2026-05-08 01:29 | 51.76089 | -124.98199 | 25057 ft | 329 kts | 166° |
| 2026-05-08 01:29 | 51.73944 | -124.96956 | 25062 ft | 329 kts | 165° |
| 2026-05-08 01:29 | 51.71782 | -124.95705 | 25067 ft | 330 kts | 165° |
| 2026-05-08 01:30 | 51.69633 | -124.94463 | 25062 ft | 330 kts | 165° |
| 2026-05-08 01:30 | 51.67477 | -124.93217 | 25059 ft | 330 kts | 165° |
| 2026-05-08 01:30 | 51.65324 | -124.91973 | 25055 ft | 331 kts | 165° |
| 2026-05-08 01:30 | 51.63138 | -124.90712 | 25053 ft | 331 kts | 165° |
| 2026-05-08 01:31 | 51.60978 | -124.89467 | 25057 ft | 331 kts | 165° |
| 2026-05-08 01:31 | 51.58796 | -124.88210 | 25057 ft | 332 kts | 165° |
| 2026-05-08 01:31 | 51.56615 | -124.86956 | 25055 ft | 332 kts | 165° |
| 2026-05-08 01:31 | 51.54464 | -124.85720 | 25056 ft | 332 kts | 165° |
| 2026-05-08 01:32 | 51.52291 | -124.84472 | 25057 ft | 332 kts | 165° |
| 2026-05-08 01:32 | 51.50096 | -124.83213 | 25059 ft | 332 kts | 165° |
| 2026-05-08 01:32 | 51.47938 | -124.81978 | 25063 ft | 333 kts | 165° |
| 2026-05-08 01:32 | 51.45733 | -124.80716 | 25064 ft | 333 kts | 165° |
| 2026-05-08 01:33 | 51.43560 | -124.79474 | 25061 ft | 333 kts | 165° |
| 2026-05-08 01:33 | 51.41385 | -124.78232 | 25061 ft | 333 kts | 165° |
| 2026-05-08 01:33 | 51.39188 | -124.76978 | 25068 ft | 333 kts | 165° |
| 2026-05-08 01:33 | 51.37007 | -124.75736 | 25067 ft | 334 kts | 165° |
| 2026-05-08 01:34 | 51.34813 | -124.74487 | 25064 ft | 334 kts | 165° |
| 2026-05-08 01:34 | 51.32623 | -124.73241 | 25061 ft | 334 kts | 165° |
| 2026-05-08 01:34 | 51.30421 | -124.71991 | 25058 ft | 335 kts | 165° |
| 2026-05-08 01:34 | 51.28241 | -124.70753 | 25056 ft | 335 kts | 165° |
| 2026-05-08 01:35 | 51.26027 | -124.69498 | 25061 ft | 335 kts | 165° |
| 2026-05-08 01:35 | 51.23838 | -124.68258 | 25064 ft | 335 kts | 165° |
| 2026-05-08 01:35 | 51.21634 | -124.67011 | 25059 ft | 335 kts | 165° |
| 2026-05-08 01:35 | 51.19433 | -124.65767 | 25057 ft | 335 kts | 165° |
| 2026-05-08 01:36 | 51.17251 | -124.64535 | 25061 ft | 335 kts | 165° |
| 2026-05-08 01:36 | 51.15065 | -124.63301 | 25064 ft | 335 kts | 165° |
| 2026-05-08 01:36 | 51.12843 | -124.62049 | 25068 ft | 336 kts | 165° |
| 2026-05-08 01:36 | 51.10639 | -124.60809 | 25070 ft | 336 kts | 165° |
| 2026-05-08 01:37 | 51.08447 | -124.59576 | 25065 ft | 336 kts | 165° |
| 2026-05-08 01:37 | 51.06253 | -124.58343 | 25069 ft | 336 kts | 165° |
| 2026-05-08 01:37 | 51.04023 | -124.57092 | 25069 ft | 337 kts | 165° |
| 2026-05-08 01:37 | 51.01816 | -124.55855 | 25068 ft | 337 kts | 165° |
| 2026-05-08 01:38 | 50.99607 | -124.54618 | 25071 ft | 337 kts | 165° |
| 2026-05-08 01:38 | 50.97394 | -124.53380 | 25067 ft | 338 kts | 165° |
| 2026-05-08 01:38 | 50.95198 | -124.52152 | 25064 ft | 338 kts | 165° |
| 2026-05-08 01:38 | 50.92974 | -124.50909 | 25063 ft | 337 kts | 165° |
| 2026-05-08 01:39 | 50.90748 | -124.49667 | 25063 ft | 337 kts | 165° |
| 2026-05-08 01:39 | 50.88523 | -124.48428 | 25065 ft | 337 kts | 165° |
| 2026-05-08 01:39 | 50.86327 | -124.47204 | 25069 ft | 336 kts | 165° |
| 2026-05-08 01:39 | 50.84111 | -124.45972 | 25069 ft | 336 kts | 165° |
| 2026-05-08 01:40 | 50.81879 | -124.44733 | 25072 ft | 336 kts | 165° |
| 2026-05-08 01:40 | 50.79682 | -124.43513 | 25073 ft | 336 kts | 165° |
| 2026-05-08 01:40 | 50.77466 | -124.42284 | 25074 ft | 337 kts | 165° |
| 2026-05-08 01:40 | 50.75229 | -124.41045 | 25074 ft | 336 kts | 165° |
| 2026-05-08 01:41 | 50.73016 | -124.39820 | 25073 ft | 337 kts | 165° |
| 2026-05-08 01:41 | 50.70811 | -124.38602 | 25073 ft | 337 kts | 165° |
| 2026-05-08 01:41 | 50.68563 | -124.37361 | 25075 ft | 338 kts | 165° |
| 2026-05-08 01:41 | 50.66347 | -124.36138 | 25075 ft | 338 kts | 165° |
| 2026-05-08 01:42 | 50.64112 | -124.34907 | 25073 ft | 338 kts | 166° |
| 2026-05-08 01:42 | 50.61894 | -124.33685 | 25075 ft | 339 kts | 166° |
| 2026-05-08 01:42 | 50.59679 | -124.32467 | 25073 ft | 339 kts | 165° |
| 2026-05-08 01:42 | 50.57426 | -124.31229 | 25069 ft | 339 kts | 166° |
| 2026-05-08 01:43 | 50.55215 | -124.30015 | 25069 ft | 339 kts | 166° |
| 2026-05-08 01:43 | 50.52971 | -124.28785 | 25067 ft | 340 kts | 166° |
| 2026-05-08 01:43 | 50.50727 | -124.27555 | 25069 ft | 340 kts | 165° |
| 2026-05-08 01:43 | 50.48494 | -124.26333 | 25070 ft | 340 kts | 165° |
| 2026-05-08 01:44 | 50.46273 | -124.25119 | 25067 ft | 340 kts | 165° |
| 2026-05-08 01:44 | 50.44007 | -124.23869 | 25065 ft | 341 kts | 164° |
| 2026-05-08 01:44 | 50.41841 | -124.22306 | 25069 ft | 345 kts | 157° |
| 2026-05-08 01:44 | 50.39703 | -124.20532 | 25064 ft | 346 kts | 156° |
| 2026-05-08 01:45 | 50.37572 | -124.18758 | 25062 ft | 346 kts | 156° |
| 2026-05-08 01:45 | 50.35458 | -124.17002 | 25057 ft | 347 kts | 156° |
| 2026-05-08 01:45 | 50.33303 | -124.15218 | 25059 ft | 347 kts | 156° |
| 2026-05-08 01:45 | 50.31186 | -124.13469 | 25062 ft | 347 kts | 156° |
| 2026-05-08 01:46 | 50.29044 | -124.11704 | 25056 ft | 348 kts | 156° |
| 2026-05-08 01:46 | 50.26899 | -124.09940 | 25053 ft | 348 kts | 156° |
| 2026-05-08 01:46 | 50.24750 | -124.08176 | 25049 ft | 348 kts | 156° |
| 2026-05-08 01:46 | 50.22592 | -124.06406 | 25049 ft | 349 kts | 156° |
| 2026-05-08 01:47 | 50.20467 | -124.04665 | 25039 ft | 349 kts | 156° |
| 2026-05-08 01:47 | 50.18294 | -124.02890 | 24928 ft | 353 kts | 156° |
| 2026-05-08 01:47 | 50.16096 | -124.01096 | 24806 ft | 356 kts | 156° |
| 2026-05-08 01:48 | 50.11659 | -123.97478 | 24558 ft | 358 kts | 156° |
| 2026-05-08 01:48 | 50.09475 | -123.95695 | 24425 ft | 354 kts | 156° |
| 2026-05-08 01:48 | 50.07283 | -123.93908 | 24293 ft | 350 kts | 156° |
| 2026-05-08 01:48 | 50.05133 | -123.92160 | 24164 ft | 348 kts | 156° |
| 2026-05-08 01:49 | 50.03018 | -123.90441 | 24088 ft | 344 kts | 156° |
| 2026-05-08 01:49 | 50.00899 | -123.88721 | 23718 ft | 342 kts | 156° |
| 2026-05-08 01:49 | 49.98790 | -123.87010 | 23303 ft | 340 kts | 156° |
| 2026-05-08 01:49 | 49.96693 | -123.85313 | 22873 ft | 340 kts | 156° |
| 2026-05-08 01:50 | 49.94622 | -123.83639 | 22448 ft | 339 kts | 155° |
| 2026-05-08 01:50 | 49.92541 | -123.81960 | 21976 ft | 340 kts | 155° |
| 2026-05-08 01:50 | 49.90430 | -123.80259 | 21497 ft | 340 kts | 155° |
| 2026-05-08 01:50 | 49.88355 | -123.78587 | 21046 ft | 337 kts | 155° |
| 2026-05-08 01:51 | 49.86281 | -123.76916 | 20606 ft | 334 kts | 155° |
| 2026-05-08 01:51 | 49.84229 | -123.75265 | 20180 ft | 331 kts | 155° |
| 2026-05-08 01:51 | 49.82205 | -123.73655 | 19741 ft | 327 kts | 156° |
| 2026-05-08 01:51 | 49.80098 | -123.72543 | 19342 ft | 319 kts | 168° |
| 2026-05-08 01:52 | 49.77944 | -123.71766 | 18930 ft | 316 kts | 169° |
| 2026-05-08 01:52 | 49.75802 | -123.71011 | 18513 ft | 313 kts | 169° |
| 2026-05-08 01:52 | 49.73693 | -123.70265 | 18109 ft | 311 kts | 169° |
| 2026-05-08 01:52 | 49.71581 | -123.69517 | 17710 ft | 308 kts | 169° |
| 2026-05-08 01:53 | 49.69509 | -123.68780 | 17316 ft | 305 kts | 169° |
| 2026-05-08 01:53 | 49.67456 | -123.68048 | 16931 ft | 303 kts | 168° |
| 2026-05-08 01:53 | 49.65411 | -123.67322 | 16553 ft | 301 kts | 169° |
| 2026-05-08 01:53 | 49.63389 | -123.66606 | 16145 ft | 299 kts | 168° |
| 2026-05-08 01:54 | 49.61360 | -123.65887 | 15747 ft | 296 kts | 168° |
| 2026-05-08 01:54 | 49.59360 | -123.65178 | 15402 ft | 294 kts | 168° |
| 2026-05-08 01:54 | 49.57388 | -123.64479 | 15020 ft | 293 kts | 168° |
| 2026-05-08 01:54 | 49.55407 | -123.63777 | 14623 ft | 291 kts | 168° |
| 2026-05-08 01:55 | 49.53432 | -123.63077 | 14255 ft | 289 kts | 168° |
| 2026-05-08 01:55 | 49.51479 | -123.62386 | 13873 ft | 287 kts | 168° |
| 2026-05-08 01:55 | 49.49552 | -123.61702 | 13599 ft | 283 kts | 168° |
| 2026-05-08 01:55 | 49.47630 | -123.61019 | 13328 ft | 278 kts | 167° |
| 2026-05-08 01:56 | 49.45767 | -123.60358 | 13051 ft | 275 kts | 168° |
| 2026-05-08 01:56 | 49.43908 | -123.59699 | 12778 ft | 272 kts | 167° |
| 2026-05-08 01:56 | 49.42082 | -123.59052 | 12518 ft | 269 kts | 167° |
| 2026-05-08 01:56 | 49.40273 | -123.58412 | 12234 ft | 266 kts | 167° |
| 2026-05-08 01:57 | 49.38457 | -123.57770 | 11951 ft | 263 kts | 167° |
| 2026-05-08 01:57 | 49.36696 | -123.57107 | 11632 ft | 264 kts | 162° |
| 2026-05-08 01:57 | 49.35186 | -123.55527 | 11317 ft | 262 kts | 127° |
| 2026-05-08 01:57 | 49.34518 | -123.52989 | 11103 ft | 259 kts | 102° |
| 2026-05-08 01:58 | 49.34201 | -123.50275 | 10834 ft | 259 kts | 99° |
| 2026-05-08 01:58 | 49.33906 | -123.47536 | 10554 ft | 258 kts | 99° |
| 2026-05-08 01:58 | 49.33617 | -123.44800 | 10292 ft | 257 kts | 99° |
| 2026-05-08 01:58 | 49.33332 | -123.42095 | 10047 ft | 256 kts | 99° |
| 2026-05-08 01:59 | 49.33047 | -123.39384 | 9803 ft | 256 kts | 99° |
| 2026-05-08 01:59 | 49.32767 | -123.36726 | 9548 ft | 255 kts | 98° |
| 2026-05-08 01:59 | 49.32486 | -123.34052 | 9295 ft | 254 kts | 99° |
| 2026-05-08 01:59 | 49.32208 | -123.31422 | 9034 ft | 252 kts | 99° |
| 2026-05-08 02:00 | 49.31929 | -123.28783 | 8777 ft | 251 kts | 99° |
| 2026-05-08 02:00 | 49.31647 | -123.26133 | 8526 ft | 250 kts | 98° |
| 2026-05-08 02:00 | 49.31369 | -123.23521 | 8266 ft | 248 kts | 98° |
| 2026-05-08 02:00 | 49.31094 | -123.20940 | 8030 ft | 247 kts | 98° |
| 2026-05-08 02:01 | 49.30818 | -123.18346 | 7788 ft | 247 kts | 98° |
| 2026-05-08 02:01 | 49.30541 | -123.15752 | 7531 ft | 246 kts | 98° |
| 2026-05-08 02:01 | 49.30262 | -123.13155 | 7276 ft | 246 kts | 98° |
| 2026-05-08 02:01 | 49.29987 | -123.10589 | 7033 ft | 246 kts | 98° |
| 2026-05-08 02:02 | 49.29709 | -123.08004 | 6783 ft | 245 kts | 98° |
| 2026-05-08 02:02 | 49.29434 | -123.05447 | 6539 ft | 245 kts | 98° |
| 2026-05-08 02:02 | 49.29155 | -123.02874 | 6296 ft | 244 kts | 98° |
| 2026-05-08 02:02 | 49.28878 | -123.00314 | 6034 ft | 243 kts | 98° |
| 2026-05-08 02:03 | 49.28532 | -122.97820 | 5911 ft | 236 kts | 103° |
| 2026-05-08 02:03 | 49.28107 | -122.95406 | 5798 ft | 229 kts | 104° |
| 2026-05-08 02:03 | 49.27694 | -122.93082 | 5711 ft | 224 kts | 104° |
| 2026-05-08 02:03 | 49.27279 | -122.90764 | 5627 ft | 225 kts | 104° |
| 2026-05-08 02:04 | 49.26864 | -122.88447 | 5549 ft | 227 kts | 104° |
| 2026-05-08 02:04 | 49.26447 | -122.86118 | 5449 ft | 227 kts | 104° |
| 2026-05-08 02:04 | 49.26026 | -122.83759 | 5353 ft | 227 kts | 104° |
| 2026-05-08 02:04 | 49.25612 | -122.81439 | 5264 ft | 226 kts | 104° |
| 2026-05-08 02:05 | 49.24919 | -122.79259 | 5048 ft | 230 kts | 133° |
| 2026-05-08 02:05 | 49.23517 | -122.78199 | 4892 ft | 231 kts | 173° |
| 2026-05-08 02:05 | 49.21897 | -122.78381 | 4688 ft | 234 kts | 188° |
| 2026-05-08 02:05 | 49.20298 | -122.78800 | 4457 ft | 233 kts | 188° |
| 2026-05-08 02:06 | 49.18730 | -122.79347 | 4207 ft | 233 kts | 200° |
| 2026-05-08 02:06 | 49.17480 | -122.80778 | 3956 ft | 222 kts | 232° |
| 2026-05-08 02:06 | 49.16769 | -122.82824 | 3693 ft | 217 kts | 247° |
| 2026-05-08 02:06 | 49.16575 | -122.85059 | 3421 ft | 210 kts | 278° |
| 2026-05-08 02:07 | 49.16831 | -122.87213 | 3220 ft | 205 kts | 279° |
| 2026-05-08 02:07 | 49.17009 | -122.89364 | 3054 ft | 196 kts | 278° |
| 2026-05-08 02:07 | 49.17210 | -122.91350 | 2997 ft | 188 kts | 280° |
| 2026-05-08 02:07 | 49.17437 | -122.93308 | 2964 ft | 189 kts | 280° |
| 2026-05-08 02:08 | 49.17661 | -122.95300 | 2745 ft | 190 kts | 279° |
| 2026-05-08 02:08 | 49.17876 | -122.97234 | 2438 ft | 182 kts | 279° |
| 2026-05-08 02:08 | 49.18095 | -122.99103 | 2221 ft | 173 kts | 279° |
| 2026-05-08 02:08 | 49.18303 | -123.00883 | 2011 ft | 168 kts | 279° |
| 2026-05-08 02:09 | 49.18508 | -123.02642 | 1778 ft | 169 kts | 279° |
| 2026-05-08 02:09 | 49.18712 | -123.04384 | 1551 ft | 169 kts | 279° |
| 2026-05-08 02:09 | 49.18915 | -123.06142 | 1319 ft | 169 kts | 279° |
| 2026-05-08 02:09 | 49.19119 | -123.07909 | 1092 ft | 168 kts | 279° |
| 2026-05-08 02:10 | 49.19315 | -123.09615 | 866 ft | 163 kts | 279° |
| 2026-05-08 02:10 | 49.19501 | -123.11234 | 658 ft | 158 kts | 279° |
| 2026-05-08 02:10 | 49.19679 | -123.12781 | 452 ft | 149 kts | 278° |
| 2026-05-08 02:10 | 49.19853 | -123.14278 | 247 ft | 139 kts | 279° |
| 2026-05-08 02:11 | 49.20023 | -123.15734 | 86 ft | 139 kts | 278° |
| 2026-05-08 02:11 | 49.20180 | -123.17135 | 11 ft | 124 kts | 281° |
| 2026-05-08 02:11 | 49.20311 | -123.18275 | 10 ft | 85 kts | 281° |
| 2026-05-08 02:11 | 49.20385 | -123.18912 | 10 ft | 24 kts | 277° |
| 2026-05-08 02:12 | 49.20392 | -123.19110 | 10 ft | 16 kts | 266° |
| 2026-05-08 02:12 | 49.20373 | -123.19264 | 10 ft | 13 kts | 255° |
| 2026-05-08 02:12 | 49.20349 | -123.19381 | 10 ft | 10 kts | 249° |
| 2026-05-08 02:12 | 49.20326 | -123.19469 | 10 ft | 7 kts | 249° |
| 2026-05-08 02:13 | 49.20309 | -123.19540 | 10 ft | 6 kts | 251° |
| 2026-05-08 02:13 | 49.20293 | -123.19594 | 10 ft | 5 kts | 229° |
| 2026-05-08 02:13 | 49.20260 | -123.19604 | 10 ft | 5 kts | 152° |
| 2026-05-08 02:13 | 49.20241 | -123.19538 | 10 ft | 8 kts | 101° |
| 2026-05-08 02:14 | 49.20229 | -123.19434 | 10 ft | 11 kts | 99° |
| 2026-05-08 02:14 | 49.20213 | -123.19296 | 10 ft | 14 kts | 100° |
| 2026-05-08 02:14 | 49.20198 | -123.19163 | 10 ft | 12 kts | 100° |
| 2026-05-08 02:14 | 49.20179 | -123.19052 | 10 ft | 10 kts | 130° |
| 2026-05-08 02:15 | 49.20117 | -123.19035 | 10 ft | 8 kts | 189° |
| 2026-05-08 02:15 | 49.20062 | -123.19048 | 10 ft | 7 kts | 189° |
| 2026-05-08 02:15 | 49.20012 | -123.19062 | 10 ft | 9 kts | 191° |
| 2026-05-08 02:15 | 49.19939 | -123.19082 | 10 ft | 11 kts | 189° |
| 2026-05-08 02:16 | 49.19859 | -123.19103 | 10 ft | 12 kts | 190° |
| 2026-05-08 02:16 | 49.19775 | -123.19126 | 10 ft | 12 kts | 191° |
| 2026-05-08 02:16 | 49.19689 | -123.19149 | 10 ft | 11 kts | 189° |
| 2026-05-08 02:16 | 49.19603 | -123.19172 | 10 ft | 12 kts | 190° |
| 2026-05-08 02:17 | 49.19529 | -123.19134 | 10 ft | 10 kts | 140° |
| 2026-05-08 02:17 | 49.19477 | -123.19070 | 10 ft | 9 kts | 142° |
| 2026-05-08 02:17 | 49.19424 | -123.19007 | 10 ft | 8 kts | 142° |
| 2026-05-08 02:17 | 49.19379 | -123.18944 | 10 ft | 10 kts | 118° |
| 2026-05-08 02:18 | 49.19384 | -123.18820 | 10 ft | 13 kts | 78° |
| 2026-05-08 02:18 | 49.19400 | -123.18753 | 10 ft | 4 kts | 35° |
| 2026-05-08 02:18 | 49.19430 | -123.18709 | 10 ft | 7 kts | 56° |
| 2026-05-08 02:18 | 49.19455 | -123.18650 | 10 ft | 6 kts | 57° |
| 2026-05-08 02:19 | 49.19469 | -123.18618 | 10 ft | 0 kts | 57° |